« Back
NWS Peachtree City, Ga » Text Product » CSG Terminal Aerodrome Forecast


Printer-friendly Version
Current Version              Previous Versions:   1  2  3  4  5  6  7  8  9  

Terminal Aerodrome Forecast

312
FTUS42 KFFC 160300 AAB
TAFCSG
TAF AMD
KCSG 160343Z 1604/1624 35008KT P6SM SCT250
     FM160800 01008KT P6SM SCT250
     FM161400 10011G19KT P6SM SCT250=

USA.gov is the U.S. government's official web portal to all federal, state and local government web resources and services.